Queen Of Alberni — CZ8100 — position and weather

sailwx.info

Track history (hours):
 
Tides and Currents Weather Stations Pressure Air Temp Water Temp Dewpoint Dewpoint Depression Visibility Wind Speed Wind Dir Waves Ship Positions

Queen Of Alberni

Last reported at 2018-Jun-18 18:56 UTC. Time now 2018-Jun-18 21:15 UTC.
Position N 49°13' W 123°49'.

Length 134 m; draft 5.8 m.

Type: Passenger vessel. MMSI: 316001245.

Date/timePositionNaut miles runAvg speedWind from/ knotsBaromVisibWave heightAir tempDewpointWater temp
2018-Jun-18 18:56N 49°13' W 123°49'1018.4
2018-Jun-18 18:23N 49°09' W 123°35'718.6
2018-Jun-18 18:00N 49°06' W 123°25'919.3
2018-Jun-18 17:30N 49°01' W 123°13'3 6.4
2018-Jun-18 17:00N 49°00' W 123°08'2 4.3
2018-Jun-18 16:30N 48°60' W 123°11'1019.2
2018-Jun-18 15:58N 49°04' W 123°25'18 8.9
2018-Jun-18 13:55N 49°13' W 123°50'1018.5
2018-Jun-18 13:23N 49°10' W 123°36'718.5
2018-Jun-18 13:00N 49°06' W 123°26'1019.2
2018-Jun-18 12:30N 49°01' W 123°14'4 7.9
2018-Jun-18 12:00N 49°00' W 123°08'0 0.0
2018-Jun-18 11:30N 49°00' W 123°08'0 0.0
2018-Jun-18 10:49N 49°00' W 123°08'0 0.0
2018-Jun-18 10:25N 49°00' W 123°08'0 0.0
2018-Jun-18 09:55N 49°00' W 123°08'0 0.0
2018-Jun-18 09:25N 49°00' W 123°08'0 0.0
2018-Jun-18 08:55N 49°00' W 123°08'0 0.0
2018-Jun-18 08:25N 49°00' W 123°08'0 0.0
2018-Jun-18 07:49N 49°00' W 123°08'3 9.0
2018-Jun-18 07:30N 49°00' W 123°12'918.9
2018-Jun-18 07:00N 49°04' W 123°25'1916.0
2018-Jun-18 05:48N 49°10' W 123°53'11 8.2
2018-Jun-18 04:28N 49°10' W 123°37'817.9
2018-Jun-18 04:00N 49°06' W 123°26'917.6
2018-Jun-18 03:30N 49°01' W 123°14'4 8.7
2018-Jun-18 03:00N 49°00' W 123°08'3 6.4
2018-Jun-18 02:30N 49°01' W 123°13'919.1
2018-Jun-18 02:00N 49°04' W 123°26'8 2.9
2018-Jun-17 23:22N 49°09' W 123°35'718.7
2018-Jun-17 23:00N 49°06' W 123°26'1019.4
2018-Jun-17 22:30N 49°01' W 123°13'3 6.6
2018-Jun-17 22:00N 49°00' W 123°08'4 7.0
2018-Jun-17 21:30N 48°60' W 123°13'1020.4
2018-Jun-17 21:00N 49°04' W 123°27'17 8.5
2018-Jun-17 19:02N 49°13' W 123°49'517.8
2018-Jun-17 18:46N 49°12' W 123°42'518.0
2018-Jun-17 18:30N 49°10' W 123°36'917.9
2018-Jun-17 18:00N 49°05' W 123°24'918.5
2018-Jun-17 17:30N 49°00' W 123°12'3 5.1
2018-Jun-17 17:00N 49°00' W 123°08'0 0.0
2018-Jun-17 16:30N 49°00' W 123°08'0 0.0
2018-Jun-17 16:00N 49°00' W 123°08'0 0.0
2018-Jun-17 15:30N 49°00' W 123°08'0 0.0
2018-Jun-17 15:00N 49°00' W 123°08'0 0.0
2018-Jun-17 14:30N 49°00' W 123°08'0 0.0
2018-Jun-17 14:00N 49°00' W 123°08'0 0.0
2018-Jun-17 13:26N 49°00' W 123°08'0 0.0
2018-Jun-17 12:56N 49°00' W 123°08'0 0.0
2018-Jun-17 12:26N 49°00' W 123°08'0 0.0
2018-Jun-17 11:56N 49°00' W 123°08'0 0.0
2018-Jun-17 11:20N 49°00' W 123°08'0 0.0
2018-Jun-17 10:56N 49°00' W 123°08'0 0.0
2018-Jun-17 10:14N 49°00' W 123°08'0 0.0
2018-Jun-17 09:47N 49°00' W 123°08'0 0.0
2018-Jun-17 09:29N 49°00' W 123°08'0 0.0
2018-Jun-17 08:59N 49°00' W 123°08'0 0.0
2018-Jun-17 08:26N 49°00' W 123°08'0 0.0
2018-Jun-17 07:56N 49°00' W 123°08'0 0.0
2018-Jun-17 07:29N 49°00' W 123°08'0 0.0
2018-Jun-17 06:53N 49°00' W 123°08'0 0.0
2018-Jun-17 06:29N 49°00' W 123°08'0 0.0
2018-Jun-17 05:59N 49°00' W 123°08'0 0.0
2018-Jun-17 05:29N 49°00' W 123°08'0 0.0
2018-Jun-17 04:56N 49°00' W 123°08'0 0.0
2018-Jun-17 04:26N 49°00' W 123°08'0 0.0
2018-Jun-17 03:56N 49°00' W 123°08'0 0.0
2018-Jun-17 03:29N 49°00' W 123°08'0 0.0
2018-Jun-17 02:59N 49°00' W 123°08'3 7.1
2018-Jun-17 02:30N 49°00' W 123°13'918.3
2018-Jun-17 02:00N 49°04' W 123°26'6 2.4
2018-Jun-16 23:18N 49°09' W 123°33'518.1
2018-Jun-16 23:00N 49°06' W 123°26'918.1
2018-Jun-16 22:30N 49°01' W 123°14'4 8.3
2018-Jun-16 21:59N 49°00' W 123°08'1 2.0
2018-Jun-16 21:30N 48°60' W 123°09'1019.6
2018-Jun-16 21:00N 49°02' W 123°24'11 4.4
2018-Jun-16 18:29N 49°10' W 123°36'817.1
2018-Jun-16 18:00N 49°06' W 123°25'917.5
2018-Jun-16 17:30N 49°01' W 123°14'4 7.6
2018-Jun-16 17:00N 49°00' W 123°08'2 3.5
2018-Jun-16 16:30N 48°60' W 123°10'1019.3
2018-Jun-16 16:00N 49°03' W 123°24'1019.8
2018-Jun-16 15:30N 49°09' W 123°36'10 6.2
2018-Jun-16 13:56N 49°13' W 123°50'817.6
2018-Jun-16 13:28N 49°10' W 123°38'918.1
2018-Jun-16 13:00N 49°06' W 123°26'918.2
2018-Jun-16 12:30N 49°01' W 123°15'5 9.1
2018-Jun-16 12:00N 49°00' W 123°08'0 0.0
2018-Jun-16 11:30N 49°00' W 123°08'0 0.0
2018-Jun-16 10:45N 49°00' W 123°08'0 0.0
2018-Jun-16 10:27N 49°00' W 123°08'0 0.0
2018-Jun-16 09:45N 49°00' W 123°08'0 0.0
2018-Jun-16 09:15N 49°00' W 123°08'0 0.0
2018-Jun-16 07:45N 49°00' W 123°08'311.1
2018-Jun-16 07:30N 49°00' W 123°12'918.3
2018-Jun-16 07:00N 49°04' W 123°25'1018.7
2018-Jun-16 06:30N 49°09' W 123°37'9 5.6
2018-Jun-16 04:56N 49°13' W 123°49'918.0
2018-Jun-16 04:24N 49°09' W 123°36'718.2
2018-Jun-16 04:00N 49°06' W 123°26'918.2
2018-Jun-16 03:30N 49°01' W 123°14'4 8.4
2018-Jun-16 03:01N 49°00' W 123°08'4 6.8
2018-Jun-16 02:30N 49°01' W 123°13'1018.0
2018-Jun-16 01:57N 49°04' W 123°27'16 7.8
2018-Jun-15 23:53N 49°13' W 123°48'819.4
2018-Jun-15 23:29N 49°10' W 123°37'1019.6
2018-Jun-15 23:00N 49°05' W 123°25'1020.5
2018-Jun-15 22:30N 49°00' W 123°11'2 4.0
2018-Jun-15 22:00N 49°00' W 123°08'3 6.0
2018-Jun-15 21:30N 49°00' W 123°13'1119.3
2018-Jun-15 20:57N 49°05' W 123°27'7 2.7
2018-Jun-15 18:21N 49°10' W 123°35'618.3
2018-Jun-15 18:00N 49°06' W 123°27'918.5
2018-Jun-15 17:30N 49°01' W 123°14'4 8.7
2018-Jun-15 17:00N 49°00' W 123°08'2 3.5
2018-Jun-15 16:29N 49°00' W 123°11'919.6
2018-Jun-15 16:00N 49°03' W 123°24'19 9.2
2018-Jun-15 13:55N 49°13' W 123°49'918.8
2018-Jun-15 13:27N 49°10' W 123°36'919.2
2018-Jun-15 13:00N 49°06' W 123°25'919.0
2018-Jun-15 12:30N 49°01' W 123°13'3 6.3
2018-Jun-15 11:59N 49°00' W 123°08'0 0.0
2018-Jun-15 11:30N 49°00' W 123°08'0 0.0
2018-Jun-15 10:59N 49°00' W 123°08'0 0.0
2018-Jun-15 10:26N 49°00' W 123°08'0 0.0
2018-Jun-15 09:59N 49°00' W 123°08'0 0.0
2018-Jun-15 09:26N 49°00' W 123°08'0 0.0
2018-Jun-15 08:53N 49°00' W 123°08'0 0.0
2018-Jun-15 08:29N 49°00' W 123°08'0 0.0
2018-Jun-15 07:56N 49°00' W 123°08'3 8.2
2018-Jun-15 07:30N 48°60' W 123°13'918.8
2018-Jun-15 07:00N 49°04' W 123°25'17 7.9
2018-Jun-15 04:55N 49°13' W 123°47'818.6
2018-Jun-15 04:29N 49°09' W 123°36'918.7
2018-Jun-15 04:00N 49°05' W 123°24'917.6
2018-Jun-15 03:30N 49°00' W 123°12'3 6.0
2018-Jun-15 03:00N 49°00' W 123°08'4 7.6
2018-Jun-15 02:29N 49°01' W 123°14'918.5
2018-Jun-15 01:59N 49°04' W 123°27'17 8.8
2018-Jun-15 00:01N 49°13' W 123°50'119.6
2018-Jun-15 00:00N 49°13' W 123°49'1020.1
2018-Jun-14 23:29N 49°10' W 123°35'1020.6
2018-Jun-14 23:00N 49°05' W 123°21'1017.9
2018-Jun-14 22:28N 49°00' W 123°08'0 0.0
2018-Jun-14 21:59N 49°00' W 123°08'5 9.5
2018-Jun-14 21:30N 49°01' W 123°15'1018.5
2018-Jun-14 20:59N 49°05' W 123°28'1618.6
2018-Jun-14 20:09N 49°13' W 123°49'6 3.9
2018-Jun-14 18:35N 49°11' W 123°40'219.7
2018-Jun-14 18:29N 49°10' W 123°37'919.4
2018-Jun-14 18:00N 49°05' W 123°25'918.8
2018-Jun-14 17:31N 49°01' W 123°12'3 5.8
2018-Jun-14 17:00N 49°00' W 123°08'2 4.7
2018-Jun-14 16:31N 49°00' W 123°11'1019.8
2018-Jun-14 16:00N 49°04' W 123°26'19 9.2
2018-Jun-14 13:59N 49°13' W 123°51'1018.9
2018-Jun-14 13:26N 49°10' W 123°35'819.3
2018-Jun-14 13:00N 49°05' W 123°25'1019.3
2018-Jun-14 12:29N 49°00' W 123°12'2 5.1
2018-Jun-14 12:00N 49°00' W 123°08'0 0.0
2018-Jun-14 11:30N 49°00' W 123°08'0 0.0
2018-Jun-14 10:54N 49°00' W 123°08'0 0.0
2018-Jun-14 10:24N 49°00' W 123°08'0 0.0
2018-Jun-14 09:57N 49°00' W 123°08'0 0.0
2018-Jun-14 09:27N 49°00' W 123°08'0 0.0
2018-Jun-14 08:45N 49°00' W 123°08'0 0.0
2018-Jun-14 08:12N 49°00' W 123°08'0 0.0
2018-Jun-14 07:57N 49°00' W 123°08'2 3.8
2018-Jun-14 07:28N 48°60' W 123°10'919.6
2018-Jun-14 07:00N 49°03' W 123°24'20 9.5
2018-Jun-14 04:55N 49°13' W 123°50'1018.7
2018-Jun-14 04:25N 49°10' W 123°36'819.1
2018-Jun-14 04:00N 49°06' W 123°26'918.9
2018-Jun-14 03:30N 49°01' W 123°13'4 7.2
2018-Jun-14 03:00N 49°00' W 123°08'4 8.2
2018-Jun-14 02:30N 49°00' W 123°14'1019.6
2018-Jun-14 02:00N 49°05' W 123°27'7 3.0
2018-Jun-13 23:31N 49°10' W 123°36'620.3
2018-Jun-13 23:13N 49°07' W 123°28'420.2
2018-Jun-13 23:00N 49°05' W 123°22'1020.2
2018-Jun-13 22:30N 49°00' W 123°08'0 0.6
2018-Jun-13 22:01N 49°00' W 123°08'510.1
2018-Jun-13 21:30N 49°01' W 123°16'1018.9
2018-Jun-13 21:00N 49°05' W 123°29'1518.9
2018-Jun-13 20:11N 49°13' W 123°49'5 3.1
2018-Jun-13 18:39N 49°12' W 123°42'419.9
2018-Jun-13 18:26N 49°10' W 123°37'919.4
2018-Jun-13 17:59N 49°06' W 123°25'919.2
2018-Jun-13 17:30N 49°01' W 123°13'3 6.7
2018-Jun-13 17:00N 49°00' W 123°08'2 4.8
2018-Jun-13 16:30N 49°00' W 123°12'917.8
2018-Jun-13 16:00N 49°03' W 123°24'11 4.5
2018-Jun-13 13:28N 49°10' W 123°38'918.8
2018-Jun-13 12:59N 49°06' W 123°26'918.8
2018-Jun-13 12:30N 49°01' W 123°14'4 8.3
2018-Jun-13 12:00N 49°00' W 123°08'0 0.0
2018-Jun-13 11:30N 49°00' W 123°08'0 0.0
2018-Jun-13 10:57N 49°00' W 123°08'0 0.0
2018-Jun-13 10:27N 49°00' W 123°08'0 0.0
2018-Jun-13 09:57N 49°00' W 123°08'0 0.0
2018-Jun-13 08:39N 49°00' W 123°08'0 0.0
2018-Jun-13 08:27N 49°00' W 123°08'0 0.0
2018-Jun-13 08:00N 49°00' W 123°08'0 0.9
2018-Jun-13 07:30N 49°00' W 123°08'1119.5
2018-Jun-13 06:58N 49°03' W 123°24'1220.6
2018-Jun-13 06:22N 49°10' W 123°39'2 1.4
2018-Jun-13 04:39N 49°12' W 123°42'319.3
2018-Jun-13 04:29N 49°10' W 123°38'919.0
2018-Jun-13 04:01N 49°06' W 123°26'1018.7
2018-Jun-13 03:30N 49°00' W 123°14'4 7.0
2018-Jun-13 02:58N 49°00' W 123°08'3 6.2
2018-Jun-13 02:29N 49°00' W 123°12'919.3
2018-Jun-13 02:00N 49°04' W 123°25'1119.8
2018-Jun-13 01:28N 49°10' W 123°39'1 0.3
2018-Jun-12 23:32N 49°11' W 123°39'219.5
2018-Jun-12 23:26N 49°10' W 123°37'819.2
2018-Jun-12 23:01N 49°06' W 123°25'1019.2
2018-Jun-12 22:31N 49°01' W 123°13'3 6.8
2018-Jun-12 22:00N 49°00' W 123°08'3 6.1
2018-Jun-12 21:30N 48°60' W 123°12'918.5
2018-Jun-12 21:00N 49°04' W 123°25'18 8.5
2018-Jun-12 18:52N 49°13' W 123°49'819.2
2018-Jun-12 18:27N 49°10' W 123°38'819.0
2018-Jun-12 18:01N 49°06' W 123°26'1019.1
2018-Jun-12 17:30N 49°01' W 123°14'4 8.4
2018-Jun-12 17:00N 49°00' W 123°08'2 4.5
2018-Jun-12 16:29N 48°60' W 123°11'918.8
2018-Jun-12 16:00N 49°03' W 123°24'1019.0
2018-Jun-12 15:27N 49°09' W 123°37'10 6.3
2018-Jun-12 13:56N 49°13' W 123°51'918.8
2018-Jun-12 13:29N 49°11' W 123°38'919.0
2018-Jun-12 13:00N 49°06' W 123°26'1019.2
2018-Jun-12 12:30N 49°01' W 123°14'4 7.5
2018-Jun-12 12:00N 49°00' W 123°08'0 0.0
2018-Jun-12 11:30N 49°00' W 123°08'0 0.0
2018-Jun-12 10:59N 49°00' W 123°08'0 0.0
2018-Jun-12 10:29N 49°00' W 123°08'0 0.0
2018-Jun-12 09:56N 49°00' W 123°08'0 0.0
2018-Jun-12 09:29N 49°00' W 123°08'0 0.0
2018-Jun-12 08:56N 49°00' W 123°08'0 0.0
2018-Jun-12 08:29N 49°00' W 123°08'0 0.4
2018-Jun-12 07:58N 49°00' W 123°08'715.9
2018-Jun-12 07:30N 49°01' W 123°19'1220.2
2018-Jun-12 06:56N 49°08' W 123°33'3 1.4
2018-Jun-12 04:57N 49°09' W 123°37'819.0
2018-Jun-12 04:30N 49°06' W 123°25'1019.6
2018-Jun-12 04:00N 49°01' W 123°12'3 5.5
2018-Jun-12 03:30N 49°00' W 123°08'612.1
2018-Jun-12 03:00N 49°00' W 123°17'1020.0
2018-Jun-12 02:30N 49°06' W 123°30'10 4.9
2018-Jun-12 00:22N 49°12' W 123°43'719.0
2018-Jun-12 00:00N 49°09' W 123°34'1019.4
2018-Jun-11 23:28N 49°04' W 123°20'818.3
2018-Jun-11 23:00N 49°00' W 123°08'0 0.2
2018-Jun-11 22:30N 49°00' W 123°08'3 5.1
2018-Jun-11 22:00N 49°00' W 123°12'918.5
2018-Jun-11 21:30N 49°04' W 123°25'19 9.0
2018-Jun-11 19:23N 49°13' W 123°50'918.2
2018-Jun-11 18:52N 49°10' W 123°37'718.9
2018-Jun-11 18:29N 49°06' W 123°27'919.6
2018-Jun-11 18:00N 49°01' W 123°14'4 8.2
2018-Jun-11 17:28N 49°00' W 123°08'2 5.2
2018-Jun-11 17:01N 49°00' W 123°12'1020.2
2018-Jun-11 16:30N 49°04' W 123°26'9 4.3
2018-Jun-11 14:18N 49°10' W 123°38'618.7
2018-Jun-11 13:58N 49°07' W 123°29'919.1
2018-Jun-11 13:30N 49°02' W 123°18'713.4
2018-Jun-11 13:00N 49°00' W 123°08'0 0.0
2018-Jun-11 12:29N 49°00' W 123°08'0 0.0
2018-Jun-11 11:55N 49°00' W 123°08'0 0.0
2018-Jun-11 08:17N 49°00' W 123°08'0 0.0
2018-Jun-11 07:53N 49°00' W 123°08'3 7.4
2018-Jun-11 07:30N 48°60' W 123°12'1020.1
2018-Jun-11 07:00N 49°04' W 123°26'17 8.7
2018-Jun-11 05:00N 49°13' W 123°49'1018.9
2018-Jun-11 04:28N 49°09' W 123°35'920.0
2018-Jun-11 04:00N 49°05' W 123°23'1019.3
2018-Jun-11 03:29N 49°00' W 123°09'1 1.9
2018-Jun-11 03:00N 49°00' W 123°08'511.1
2018-Jun-11 02:30N 49°00' W 123°16'1019.9
2018-Jun-11 02:00N 49°06' W 123°29'1020.4
2018-Jun-11 01:30N 49°12' W 123°42'5 3.4
2018-Jun-10 23:56N 49°13' W 123°49'1219.1
2018-Jun-10 23:20N 49°09' W 123°33'719.4
2018-Jun-10 22:59N 49°05' W 123°24'919.0
2018-Jun-10 22:30N 49°01' W 123°12'3 5.8
2018-Jun-10 22:00N 49°00' W 123°08'3 5.4
2018-Jun-10 21:30N 49°00' W 123°12'918.9
2018-Jun-10 21:00N 49°04' W 123°25'1018.9
2018-Jun-10 20:29N 49°09' W 123°37'4 1.8
2018-Jun-10 18:12N 49°08' W 123°31'419.2
2018-Jun-10 18:00N 49°07' W 123°26'918.9
2018-Jun-10 17:30N 49°01' W 123°15'5 8.9
2018-Jun-10 17:00N 49°00' W 123°08'0 0.0
2018-Jun-10 16:30N 49°00' W 123°08'0 0.0
2018-Jun-10 16:00N 49°00' W 123°08'0 0.0
2018-Jun-10 15:30N 49°00' W 123°08'0 0.0
2018-Jun-10 14:57N 49°00' W 123°08'0 0.0
2018-Jun-10 14:00N 49°00' W 123°08'0 0.0
2018-Jun-10 13:30N 49°00' W 123°08'0 0.0
2018-Jun-10 12:57N 49°00' W 123°08'0 0.0
2018-Jun-10 12:30N 49°00' W 123°08'0 0.0
2018-Jun-10 11:54N 49°00' W 123°08'0 0.0
2018-Jun-10 09:36N 49°00' W 123°08'0 0.0
2018-Jun-10 09:18N 49°00' W 123°08'0 0.0
2018-Jun-10 08:51N 49°00' W 123°08'0 0.0
2018-Jun-10 04:43N 49°00' W 123°08'0 0.0
2018-Jun-10 04:28N 49°00' W 123°08'0 0.0
2018-Jun-10 03:58N 49°00' W 123°08'0 0.0
2018-Jun-10 03:28N 49°00' W 123°08'0 0.0
2018-Jun-10 02:58N 49°00' W 123°08'3 6.4
2018-Jun-10 02:30N 48°60' W 123°12'919.3
2018-Jun-10 02:00N 49°04' W 123°26'17 8.2
2018-Jun-09 23:53N 49°13' W 123°48'1218.5
2018-Jun-09 23:12N 49°08' W 123°31'418.6
2018-Jun-09 23:01N 49°06' W 123°26'918.6
2018-Jun-09 22:31N 49°01' W 123°14'4 8.4
2018-Jun-09 22:00N 49°00' W 123°08'2 4.8
2018-Jun-09 21:30N 49°00' W 123°12'1018.7
2018-Jun-09 20:59N 49°04' W 123°25'1019.0
2018-Jun-09 20:28N 49°09' W 123°37'8 5.2
2018-Jun-09 18:52N 49°13' W 123°48'819.0
2018-Jun-09 18:25N 49°10' W 123°37'819.0
2018-Jun-09 17:59N 49°06' W 123°26'919.1
2018-Jun-09 17:31N 49°01' W 123°14'4 7.7
2018-Jun-09 17:00N 49°00' W 123°08'2 4.6
2018-Jun-09 16:31N 48°60' W 123°11'918.6
2018-Jun-09 16:00N 49°03' W 123°25'1019.0
2018-Jun-09 15:30N 49°09' W 123°36'10 6.0
2018-Jun-09 13:54N 49°13' W 123°50'818.4
2018-Jun-09 13:29N 49°10' W 123°39'918.9
2018-Jun-09 13:00N 49°06' W 123°27'918.9
2018-Jun-09 12:30N 49°01' W 123°14'4 8.6
2018-Jun-09 12:00N 49°00' W 123°08'0 0.0
2018-Jun-09 11:21N 49°00' W 123°08'0 0.0
2018-Jun-09 10:56N 49°00' W 123°08'0 0.0
2018-Jun-09 10:26N 49°00' W 123°08'0 0.0
2018-Jun-09 09:56N 49°00' W 123°08'0 0.0
2018-Jun-09 09:26N 49°00' W 123°08'0 0.0
2018-Jun-09 08:50N 49°00' W 123°08'0 0.0
2018-Jun-09 08:29N 49°00' W 123°08'0 0.0
2018-Jun-09 07:59N 49°00' W 123°08'3 5.4
2018-Jun-09 07:30N 49°00' W 123°12'1019.5
2018-Jun-09 07:00N 49°04' W 123°26'1819.4
2018-Jun-09 06:06N 49°13' W 123°49'11 6.3
2018-Jun-09 04:21N 49°09' W 123°33'720.6
2018-Jun-09 04:00N 49°05' W 123°24'1020.0
2018-Jun-09 03:30N 49°00' W 123°10'2 3.4
2018-Jun-09 03:00N 49°00' W 123°08'5 9.9
2018-Jun-09 02:30N 49°00' W 123°15'918.3
2018-Jun-09 02:00N 49°05' W 123°28'16 7.7
2018-Jun-08 23:54N 49°13' W 123°49'919.4
2018-Jun-08 23:25N 49°10' W 123°36'819.5
2018-Jun-08 23:00N 49°06' W 123°25'1019.3
2018-Jun-08 22:30N 49°01' W 123°13'3 6.3
2018-Jun-08 22:01N 49°00' W 123°08'2 3.0
2018-Jun-08 21:30N 49°00' W 123°10'1019.4
2018-Jun-08 21:00N 49°04' W 123°24'1019.2
2018-Jun-08 20:29N 49°09' W 123°37'  
Track history (hours):
 
Tides and Currents Weather Stations Pressure Air Temp Water Temp Dewpoint Dewpoint Depression Visibility Wind Speed Wind Dir Waves Ship Positions

Queen Of Alberni

Last reported at 2018-Jun-18 18:56 UTC. Time now 2018-Jun-18 21:15 UTC.
Position N 49°13' W 123°49'.

Length 134 m; draft 5.8 m.

Type: Passenger vessel. MMSI: 316001245.

Date/timePositionNaut miles runAvg speedWind from/ knotsBaromVisibWave heightAir tempDewpointWater temp
2018-Jun-18 18:56N 49°13' W 123°49'1018.4
2018-Jun-18 18:23N 49°09' W 123°35'718.6
2018-Jun-18 18:00N 49°06' W 123°25'919.3
2018-Jun-18 17:30N 49°01' W 123°13'3 6.4
2018-Jun-18 17:00N 49°00' W 123°08'2 4.3
2018-Jun-18 16:30N 48°60' W 123°11'1019.2
2018-Jun-18 15:58N 49°04' W 123°25'18 8.9
2018-Jun-18 13:55N 49°13' W 123°50'1018.5
2018-Jun-18 13:23N 49°10' W 123°36'718.5
2018-Jun-18 13:00N 49°06' W 123°26'1019.2
2018-Jun-18 12:30N 49°01' W 123°14'4 7.9
2018-Jun-18 12:00N 49°00' W 123°08'0 0.0
2018-Jun-18 11:30N 49°00' W 123°08'0 0.0
2018-Jun-18 10:49N 49°00' W 123°08'0 0.0
2018-Jun-18 10:25N 49°00' W 123°08'0 0.0
2018-Jun-18 09:55N 49°00' W 123°08'0 0.0
2018-Jun-18 09:25N 49°00' W 123°08'0 0.0
2018-Jun-18 08:55N 49°00' W 123°08'0 0.0
2018-Jun-18 08:25N 49°00' W 123°08'0 0.0
2018-Jun-18 07:49N 49°00' W 123°08'3 9.0
2018-Jun-18 07:30N 49°00' W 123°12'918.9
2018-Jun-18 07:00N 49°04' W 123°25'1916.0
2018-Jun-18 05:48N 49°10' W 123°53'11 8.2
2018-Jun-18 04:28N 49°10' W 123°37'817.9
2018-Jun-18 04:00N 49°06' W 123°26'917.6
2018-Jun-18 03:30N 49°01' W 123°14'4 8.7
2018-Jun-18 03:00N 49°00' W 123°08'3 6.4
2018-Jun-18 02:30N 49°01' W 123°13'919.1
2018-Jun-18 02:00N 49°04' W 123°26'8 2.9
2018-Jun-17 23:22N 49°09' W 123°35'718.7
2018-Jun-17 23:00N 49°06' W 123°26'1019.4
2018-Jun-17 22:30N 49°01' W 123°13'3 6.6
2018-Jun-17 22:00N 49°00' W 123°08'4 7.0
2018-Jun-17 21:30N 48°60' W 123°13'1020.4
2018-Jun-17 21:00N 49°04' W 123°27'17 8.5
2018-Jun-17 19:02N 49°13' W 123°49'517.8
2018-Jun-17 18:46N 49°12' W 123°42'518.0
2018-Jun-17 18:30N 49°10' W 123°36'917.9
2018-Jun-17 18:00N 49°05' W 123°24'918.5
2018-Jun-17 17:30N 49°00' W 123°12'3 5.1
2018-Jun-17 17:00N 49°00' W 123°08'0 0.0
2018-Jun-17 16:30N 49°00' W 123°08'0 0.0
2018-Jun-17 16:00N 49°00' W 123°08'0 0.0
2018-Jun-17 15:30N 49°00' W 123°08'0 0.0
2018-Jun-17 15:00N 49°00' W 123°08'0 0.0
2018-Jun-17 14:30N 49°00' W 123°08'0 0.0
2018-Jun-17 14:00N 49°00' W 123°08'0 0.0
2018-Jun-17 13:26N 49°00' W 123°08'0 0.0
2018-Jun-17 12:56N 49°00' W 123°08'0 0.0
2018-Jun-17 12:26N 49°00' W 123°08'0 0.0
2018-Jun-17 11:56N 49°00' W 123°08'0 0.0
2018-Jun-17 11:20N 49°00' W 123°08'0 0.0
2018-Jun-17 10:56N 49°00' W 123°08'0 0.0
2018-Jun-17 10:14N 49°00' W 123°08'0 0.0
2018-Jun-17 09:47N 49°00' W 123°08'0 0.0
2018-Jun-17 09:29N 49°00' W 123°08'0 0.0
2018-Jun-17 08:59N 49°00' W 123°08'0 0.0
2018-Jun-17 08:26N 49°00' W 123°08'0 0.0
2018-Jun-17 07:56N 49°00' W 123°08'0 0.0
2018-Jun-17 07:29N 49°00' W 123°08'0 0.0
2018-Jun-17 06:53N 49°00' W 123°08'0 0.0
2018-Jun-17 06:29N 49°00' W 123°08'0 0.0
2018-Jun-17 05:59N 49°00' W 123°08'0 0.0
2018-Jun-17 05:29N 49°00' W 123°08'0 0.0
2018-Jun-17 04:56N 49°00' W 123°08'0 0.0
2018-Jun-17 04:26N 49°00' W 123°08'0 0.0
2018-Jun-17 03:56N 49°00' W 123°08'0 0.0
2018-Jun-17 03:29N 49°00' W 123°08'0 0.0
2018-Jun-17 02:59N 49°00' W 123°08'3 7.1
2018-Jun-17 02:30N 49°00' W 123°13'918.3
2018-Jun-17 02:00N 49°04' W 123°26'6 2.4
2018-Jun-16 23:18N 49°09' W 123°33'518.1
2018-Jun-16 23:00N 49°06' W 123°26'918.1
2018-Jun-16 22:30N 49°01' W 123°14'4 8.3
2018-Jun-16 21:59N 49°00' W 123°08'1 2.0
2018-Jun-16 21:30N 48°60' W 123°09'1019.6
2018-Jun-16 21:00N 49°02' W 123°24'11 4.4
2018-Jun-16 18:29N 49°10' W 123°36'817.1
2018-Jun-16 18:00N 49°06' W 123°25'917.5
2018-Jun-16 17:30N 49°01' W 123°14'4 7.6
2018-Jun-16 17:00N 49°00' W 123°08'2 3.5
2018-Jun-16 16:30N 48°60' W 123°10'1019.3
2018-Jun-16 16:00N 49°03' W 123°24'1019.8
2018-Jun-16 15:30N 49°09' W 123°36'10 6.2
2018-Jun-16 13:56N 49°13' W 123°50'817.6
2018-Jun-16 13:28N 49°10' W 123°38'918.1
2018-Jun-16 13:00N 49°06' W 123°26'918.2
2018-Jun-16 12:30N 49°01' W 123°15'5 9.1
2018-Jun-16 12:00N 49°00' W 123°08'0 0.0
2018-Jun-16 11:30N 49°00' W 123°08'0 0.0
2018-Jun-16 10:45N 49°00' W 123°08'0 0.0
2018-Jun-16 10:27N 49°00' W 123°08'0 0.0
2018-Jun-16 09:45N 49°00' W 123°08'0 0.0
2018-Jun-16 09:15N 49°00' W 123°08'0 0.0
2018-Jun-16 07:45N 49°00' W 123°08'311.1
2018-Jun-16 07:30N 49°00' W 123°12'918.3
2018-Jun-16 07:00N 49°04' W 123°25'1018.7
2018-Jun-16 06:30N 49°09' W 123°37'9 5.6
2018-Jun-16 04:56N 49°13' W 123°49'918.0
2018-Jun-16 04:24N 49°09' W 123°36'718.2
2018-Jun-16 04:00N 49°06' W 123°26'918.2
2018-Jun-16 03:30N 49°01' W 123°14'4 8.4
2018-Jun-16 03:01N 49°00' W 123°08'4 6.8
2018-Jun-16 02:30N 49°01' W 123°13'1018.0
2018-Jun-16 01:57N 49°04' W 123°27'16 7.8
2018-Jun-15 23:53N 49°13' W 123°48'819.4
2018-Jun-15 23:29N 49°10' W 123°37'1019.6
2018-Jun-15 23:00N 49°05' W 123°25'1020.5
2018-Jun-15 22:30N 49°00' W 123°11'2 4.0
2018-Jun-15 22:00N 49°00' W 123°08'3 6.0
2018-Jun-15 21:30N 49°00' W 123°13'1119.3
2018-Jun-15 20:57N 49°05' W 123°27'7 2.7
2018-Jun-15 18:21N 49°10' W 123°35'618.3
2018-Jun-15 18:00N 49°06' W 123°27'918.5
2018-Jun-15 17:30N 49°01' W 123°14'4 8.7
2018-Jun-15 17:00N 49°00' W 123°08'2 3.5
2018-Jun-15 16:29N 49°00' W 123°11'919.6
2018-Jun-15 16:00N 49°03' W 123°24'19 9.2
2018-Jun-15 13:55N 49°13' W 123°49'918.8
2018-Jun-15 13:27N 49°10' W 123°36'919.2
2018-Jun-15 13:00N 49°06' W 123°25'919.0
2018-Jun-15 12:30N 49°01' W 123°13'3 6.3
2018-Jun-15 11:59N 49°00' W 123°08'0 0.0
2018-Jun-15 11:30N 49°00' W 123°08'0 0.0
2018-Jun-15 10:59N 49°00' W 123°08'0 0.0
2018-Jun-15 10:26N 49°00' W 123°08'0 0.0
2018-Jun-15 09:59N 49°00' W 123°08'0 0.0
2018-Jun-15 09:26N 49°00' W 123°08'0 0.0
2018-Jun-15 08:53N 49°00' W 123°08'0 0.0
2018-Jun-15 08:29N 49°00' W 123°08'0 0.0
2018-Jun-15 07:56N 49°00' W 123°08'3 8.2
2018-Jun-15 07:30N 48°60' W 123°13'918.8
2018-Jun-15 07:00N 49°04' W 123°25'17 7.9
2018-Jun-15 04:55N 49°13' W 123°47'818.6
2018-Jun-15 04:29N 49°09' W 123°36'918.7
2018-Jun-15 04:00N 49°05' W 123°24'917.6
2018-Jun-15 03:30N 49°00' W 123°12'3 6.0
2018-Jun-15 03:00N 49°00' W 123°08'4 7.6
2018-Jun-15 02:29N 49°01' W 123°14'918.5
2018-Jun-15 01:59N 49°04' W 123°27'17 8.8
2018-Jun-15 00:01N 49°13' W 123°50'119.6
2018-Jun-15 00:00N 49°13' W 123°49'1020.1
2018-Jun-14 23:29N 49°10' W 123°35'1020.6
2018-Jun-14 23:00N 49°05' W 123°21'1017.9
2018-Jun-14 22:28N 49°00' W 123°08'0 0.0
2018-Jun-14 21:59N 49°00' W 123°08'5 9.5
2018-Jun-14 21:30N 49°01' W 123°15'1018.5
2018-Jun-14 20:59N 49°05' W 123°28'1618.6
2018-Jun-14 20:09N 49°13' W 123°49'6 3.9
2018-Jun-14 18:35N 49°11' W 123°40'219.7
2018-Jun-14 18:29N 49°10' W 123°37'919.4
2018-Jun-14 18:00N 49°05' W 123°25'918.8
2018-Jun-14 17:31N 49°01' W 123°12'3 5.8
2018-Jun-14 17:00N 49°00' W 123°08'2 4.7
2018-Jun-14 16:31N 49°00' W 123°11'1019.8
2018-Jun-14 16:00N 49°04' W 123°26'19 9.2
2018-Jun-14 13:59N 49°13' W 123°51'1018.9
2018-Jun-14 13:26N 49°10' W 123°35'819.3
2018-Jun-14 13:00N 49°05' W 123°25'1019.3
2018-Jun-14 12:29N 49°00' W 123°12'2 5.1
2018-Jun-14 12:00N 49°00' W 123°08'0 0.0
2018-Jun-14 11:30N 49°00' W 123°08'0 0.0
2018-Jun-14 10:54N 49°00' W 123°08'0 0.0
2018-Jun-14 10:24N 49°00' W 123°08'0 0.0
2018-Jun-14 09:57N 49°00' W 123°08'0 0.0
2018-Jun-14 09:27N 49°00' W 123°08'0 0.0
2018-Jun-14 08:45N 49°00' W 123°08'0 0.0
2018-Jun-14 08:12N 49°00' W 123°08'0 0.0
2018-Jun-14 07:57N 49°00' W 123°08'2 3.8
2018-Jun-14 07:28N 48°60' W 123°10'919.6
2018-Jun-14 07:00N 49°03' W 123°24'20 9.5
2018-Jun-14 04:55N 49°13' W 123°50'1018.7
2018-Jun-14 04:25N 49°10' W 123°36'819.1
2018-Jun-14 04:00N 49°06' W 123°26'918.9
2018-Jun-14 03:30N 49°01' W 123°13'4 7.2
2018-Jun-14 03:00N 49°00' W 123°08'4 8.2
2018-Jun-14 02:30N 49°00' W 123°14'1019.6
2018-Jun-14 02:00N 49°05' W 123°27'7 3.0
2018-Jun-13 23:31N 49°10' W 123°36'620.3
2018-Jun-13 23:13N 49°07' W 123°28'420.2
2018-Jun-13 23:00N 49°05' W 123°22'1020.2
2018-Jun-13 22:30N 49°00' W 123°08'0 0.6
2018-Jun-13 22:01N 49°00' W 123°08'510.1
2018-Jun-13 21:30N 49°01' W 123°16'1018.9
2018-Jun-13 21:00N 49°05' W 123°29'1518.9
2018-Jun-13 20:11N 49°13' W 123°49'5 3.1
2018-Jun-13 18:39N 49°12' W 123°42'419.9
2018-Jun-13 18:26N 49°10' W 123°37'919.4
2018-Jun-13 17:59N 49°06' W 123°25'919.2
2018-Jun-13 17:30N 49°01' W 123°13'3 6.7
2018-Jun-13 17:00N 49°00' W 123°08'2 4.8
2018-Jun-13 16:30N 49°00' W 123°12'917.8
2018-Jun-13 16:00N 49°03' W 123°24'11 4.5
2018-Jun-13 13:28N 49°10' W 123°38'918.8
2018-Jun-13 12:59N 49°06' W 123°26'918.8
2018-Jun-13 12:30N 49°01' W 123°14'4 8.3
2018-Jun-13 12:00N 49°00' W 123°08'0 0.0
2018-Jun-13 11:30N 49°00' W 123°08'0 0.0
2018-Jun-13 10:57N 49°00' W 123°08'0 0.0
2018-Jun-13 10:27N 49°00' W 123°08'0 0.0
2018-Jun-13 09:57N 49°00' W 123°08'0 0.0
2018-Jun-13 08:39N 49°00' W 123°08'0 0.0
2018-Jun-13 08:27N 49°00' W 123°08'0 0.0
2018-Jun-13 08:00N 49°00' W 123°08'0 0.9
2018-Jun-13 07:30N 49°00' W 123°08'1119.5
2018-Jun-13 06:58N 49°03' W 123°24'1220.6
2018-Jun-13 06:22N 49°10' W 123°39'2 1.4
2018-Jun-13 04:39N 49°12' W 123°42'319.3
2018-Jun-13 04:29N 49°10' W 123°38'919.0
2018-Jun-13 04:01N 49°06' W 123°26'1018.7
2018-Jun-13 03:30N 49°00' W 123°14'4 7.0
2018-Jun-13 02:58N 49°00' W 123°08'3 6.2
2018-Jun-13 02:29N 49°00' W 123°12'919.3
2018-Jun-13 02:00N 49°04' W 123°25'1119.8
2018-Jun-13 01:28N 49°10' W 123°39'1 0.3
2018-Jun-12 23:32N 49°11' W 123°39'219.5
2018-Jun-12 23:26N 49°10' W 123°37'819.2
2018-Jun-12 23:01N 49°06' W 123°25'1019.2
2018-Jun-12 22:31N 49°01' W 123°13'3 6.8
2018-Jun-12 22:00N 49°00' W 123°08'3 6.1
2018-Jun-12 21:30N 48°60' W 123°12'918.5
2018-Jun-12 21:00N 49°04' W 123°25'18 8.5
2018-Jun-12 18:52N 49°13' W 123°49'819.2
2018-Jun-12 18:27N 49°10' W 123°38'819.0
2018-Jun-12 18:01N 49°06' W 123°26'1019.1
2018-Jun-12 17:30N 49°01' W 123°14'4 8.4
2018-Jun-12 17:00N 49°00' W 123°08'2 4.5
2018-Jun-12 16:29N 48°60' W 123°11'918.8
2018-Jun-12 16:00N 49°03' W 123°24'1019.0
2018-Jun-12 15:27N 49°09' W 123°37'10 6.3
2018-Jun-12 13:56N 49°13' W 123°51'918.8
2018-Jun-12 13:29N 49°11' W 123°38'919.0
2018-Jun-12 13:00N 49°06' W 123°26'1019.2
2018-Jun-12 12:30N 49°01' W 123°14'4 7.5
2018-Jun-12 12:00N 49°00' W 123°08'0 0.0
2018-Jun-12 11:30N 49°00' W 123°08'0 0.0
2018-Jun-12 10:59N 49°00' W 123°08'0 0.0
2018-Jun-12 10:29N 49°00' W 123°08'0 0.0
2018-Jun-12 09:56N 49°00' W 123°08'0 0.0
2018-Jun-12 09:29N 49°00' W 123°08'0 0.0
2018-Jun-12 08:56N 49°00' W 123°08'0 0.0
2018-Jun-12 08:29N 49°00' W 123°08'0 0.4
2018-Jun-12 07:58N 49°00' W 123°08'715.9
2018-Jun-12 07:30N 49°01' W 123°19'1220.2
2018-Jun-12 06:56N 49°08' W 123°33'3 1.4
2018-Jun-12 04:57N 49°09' W 123°37'819.0
2018-Jun-12 04:30N 49°06' W 123°25'1019.6
2018-Jun-12 04:00N 49°01' W 123°12'3 5.5
2018-Jun-12 03:30N 49°00' W 123°08'612.1
2018-Jun-12 03:00N 49°00' W 123°17'1020.0
2018-Jun-12 02:30N 49°06' W 123°30'10 4.9
2018-Jun-12 00:22N 49°12' W 123°43'719.0
2018-Jun-12 00:00N 49°09' W 123°34'1019.4
2018-Jun-11 23:28N 49°04' W 123°20'818.3
2018-Jun-11 23:00N 49°00' W 123°08'0 0.2
2018-Jun-11 22:30N 49°00' W 123°08'3 5.1
2018-Jun-11 22:00N 49°00' W 123°12'918.5
2018-Jun-11 21:30N 49°04' W 123°25'19 9.0
2018-Jun-11 19:23N 49°13' W 123°50'918.2
2018-Jun-11 18:52N 49°10' W 123°37'718.9
2018-Jun-11 18:29N 49°06' W 123°27'919.6
2018-Jun-11 18:00N 49°01' W 123°14'4 8.2
2018-Jun-11 17:28N 49°00' W 123°08'2 5.2
2018-Jun-11 17:01N 49°00' W 123°12'1020.2
2018-Jun-11 16:30N 49°04' W 123°26'9 4.3
2018-Jun-11 14:18N 49°10' W 123°38'618.7
2018-Jun-11 13:58N 49°07' W 123°29'919.1
2018-Jun-11 13:30N 49°02' W 123°18'713.4
2018-Jun-11 13:00N 49°00' W 123°08'0 0.0
2018-Jun-11 12:29N 49°00' W 123°08'0 0.0
2018-Jun-11 11:55N 49°00' W 123°08'0 0.0
2018-Jun-11 08:17N 49°00' W 123°08'0 0.0
2018-Jun-11 07:53N 49°00' W 123°08'3 7.4
2018-Jun-11 07:30N 48°60' W 123°12'1020.1
2018-Jun-11 07:00N 49°04' W 123°26'17 8.7
2018-Jun-11 05:00N 49°13' W 123°49'1018.9
2018-Jun-11 04:28N 49°09' W 123°35'920.0
2018-Jun-11 04:00N 49°05' W 123°23'1019.3
2018-Jun-11 03:29N 49°00' W 123°09'1 1.9
2018-Jun-11 03:00N 49°00' W 123°08'511.1
2018-Jun-11 02:30N 49°00' W 123°16'1019.9
2018-Jun-11 02:00N 49°06' W 123°29'1020.4
2018-Jun-11 01:30N 49°12' W 123°42'5 3.4
2018-Jun-10 23:56N 49°13' W 123°49'1219.1
2018-Jun-10 23:20N 49°09' W 123°33'719.4
2018-Jun-10 22:59N 49°05' W 123°24'919.0
2018-Jun-10 22:30N 49°01' W 123°12'3 5.8
2018-Jun-10 22:00N 49°00' W 123°08'3 5.4
2018-Jun-10 21:30N 49°00' W 123°12'918.9
2018-Jun-10 21:00N 49°04' W 123°25'1018.9
2018-Jun-10 20:29N 49°09' W 123°37'4 1.8
2018-Jun-10 18:12N 49°08' W 123°31'419.2
2018-Jun-10 18:00N 49°07' W 123°26'918.9
2018-Jun-10 17:30N 49°01' W 123°15'5 8.9
2018-Jun-10 17:00N 49°00' W 123°08'0 0.0
2018-Jun-10 16:30N 49°00' W 123°08'0 0.0
2018-Jun-10 16:00N 49°00' W 123°08'0 0.0
2018-Jun-10 15:30N 49°00' W 123°08'0 0.0
2018-Jun-10 14:57N 49°00' W 123°08'0 0.0
2018-Jun-10 14:00N 49°00' W 123°08'0 0.0
2018-Jun-10 13:30N 49°00' W 123°08'0 0.0
2018-Jun-10 12:57N 49°00' W 123°08'0 0.0
2018-Jun-10 12:30N 49°00' W 123°08'0 0.0
2018-Jun-10 11:54N 49°00' W 123°08'0 0.0
2018-Jun-10 09:36N 49°00' W 123°08'0 0.0
2018-Jun-10 09:18N 49°00' W 123°08'0 0.0
2018-Jun-10 08:51N 49°00' W 123°08'0 0.0
2018-Jun-10 04:43N 49°00' W 123°08'0 0.0
2018-Jun-10 04:28N 49°00' W 123°08'0 0.0
2018-Jun-10 03:58N 49°00' W 123°08'0 0.0
2018-Jun-10 03:28N 49°00' W 123°08'0 0.0
2018-Jun-10 02:58N 49°00' W 123°08'3 6.4
2018-Jun-10 02:30N 48°60' W 123°12'919.3
2018-Jun-10 02:00N 49°04' W 123°26'17 8.2
2018-Jun-09 23:53N 49°13' W 123°48'1218.5
2018-Jun-09 23:12N 49°08' W 123°31'418.6
2018-Jun-09 23:01N 49°06' W 123°26'918.6
2018-Jun-09 22:31N 49°01' W 123°14'4 8.4
2018-Jun-09 22:00N 49°00' W 123°08'2 4.8
2018-Jun-09 21:30N 49°00' W 123°12'1018.7
2018-Jun-09 20:59N 49°04' W 123°25'1019.0
2018-Jun-09 20:28N 49°09' W 123°37'8 5.2
2018-Jun-09 18:52N 49°13' W 123°48'819.0
2018-Jun-09 18:25N 49°10' W 123°37'819.0
2018-Jun-09 17:59N 49°06' W 123°26'919.1
2018-Jun-09 17:31N 49°01' W 123°14'4 7.7
2018-Jun-09 17:00N 49°00' W 123°08'2 4.6
2018-Jun-09 16:31N 48°60' W 123°11'918.6
2018-Jun-09 16:00N 49°03' W 123°25'1019.0
2018-Jun-09 15:30N 49°09' W 123°36'10 6.0
2018-Jun-09 13:54N 49°13' W 123°50'818.4
2018-Jun-09 13:29N 49°10' W 123°39'918.9
2018-Jun-09 13:00N 49°06' W 123°27'918.9
2018-Jun-09 12:30N 49°01' W 123°14'4 8.6
2018-Jun-09 12:00N 49°00' W 123°08'0 0.0
2018-Jun-09 11:21N 49°00' W 123°08'0 0.0
2018-Jun-09 10:56N 49°00' W 123°08'0 0.0
2018-Jun-09 10:26N 49°00' W 123°08'0 0.0
2018-Jun-09 09:56N 49°00' W 123°08'0 0.0
2018-Jun-09 09:26N 49°00' W 123°08'0 0.0
2018-Jun-09 08:50N 49°00' W 123°08'0 0.0
2018-Jun-09 08:29N 49°00' W 123°08'0 0.0
2018-Jun-09 07:59N 49°00' W 123°08'3 5.4
2018-Jun-09 07:30N 49°00' W 123°12'1019.5
2018-Jun-09 07:00N 49°04' W 123°26'1819.4
2018-Jun-09 06:06N 49°13' W 123°49'11 6.3
2018-Jun-09 04:21N 49°09' W 123°33'720.6
2018-Jun-09 04:00N 49°05' W 123°24'1020.0
2018-Jun-09 03:30N 49°00' W 123°10'2 3.4
2018-Jun-09 03:00N 49°00' W 123°08'5 9.9
2018-Jun-09 02:30N 49°00' W 123°15'918.3
2018-Jun-09 02:00N 49°05' W 123°28'16 7.7
2018-Jun-08 23:54N 49°13' W 123°49'919.4
2018-Jun-08 23:25N 49°10' W 123°36'819.5
2018-Jun-08 23:00N 49°06' W 123°25'1019.3
2018-Jun-08 22:30N 49°01' W 123°13'3 6.3
2018-Jun-08 22:01N 49°00' W 123°08'2 3.0
2018-Jun-08 21:30N 49°00' W 123°10'1019.4
2018-Jun-08 21:00N 49°04' W 123°24'1019.2
2018-Jun-08 20:29N 49°09' W 123°37'  

Dump ship's entire track history